sensor_id;sensor_type;location;lat;lon;timestamp;P1;durP1;ratioP1;P2;durP2;ratioP2
417;SDS011;49;48.530;9.200;2023-03-01T00:00:18;45.77;;;27.50;;
417;SDS011;49;48.530;9.200;2023-03-01T00:02:45;43.17;;;26.43;;
417;SDS011;49;48.530;9.200;2023-03-01T00:05:12;51.57;;;28.77;;
417;SDS011;49;48.530;9.200;2023-03-01T00:07:39;49.13;;;28.63;;
417;SDS011;49;48.530;9.200;2023-03-01T00:10:06;50.17;;;28.00;;
417;SDS011;49;48.530;9.200;2023-03-01T00:12:34;48.97;;;28.00;;
417;SDS011;49;48.530;9.200;2023-03-01T00:15:03;41.70;;;27.80;;
417;SDS011;49;48.530;9.200;2023-03-01T00:17:31;37.43;;;24.60;;
417;SDS011;49;48.530;9.200;2023-03-01T00:19:58;46.00;;;27.53;;
417;SDS011;49;48.530;9.200;2023-03-01T00:22:26;52.40;;;26.30;;
417;SDS011;49;48.530;9.200;2023-03-01T00:24:53;45.63;;;25.90;;
417;SDS011;49;48.530;9.200;2023-03-01T00:27:20;41.45;;;25.98;;
417;SDS011;49;48.530;9.200;2023-03-01T00:29:47;38.30;;;24.97;;
417;SDS011;49;48.530;9.200;2023-03-01T00:32:15;41.03;;;25.07;;
417;SDS011;49;48.530;9.200;2023-03-01T00:34:42;39.23;;;25.03;;
417;SDS011;49;48.530;9.200;2023-03-01T00:37:19;41.20;;;25.17;;
417;SDS011;49;48.530;9.200;2023-03-01T00:39:46;38.97;;;25.00;;
417;SDS011;49;48.530;9.200;2023-03-01T00:42:13;38.10;;;25.13;;
417;SDS011;49;48.530;9.200;2023-03-01T00:44:44;39.87;;;25.73;;
417;SDS011;49;48.530;9.200;2023-03-01T00:47:38;36.70;;;24.30;;
417;SDS011;49;48.530;9.200;2023-03-01T00:50:06;37.43;;;24.27;;
417;SDS011;49;48.530;9.200;2023-03-01T00:55:21;43.38;;;24.52;;
417;SDS011;49;48.530;9.200;2023-03-01T00:57:48;39.57;;;26.07;;
417;SDS011;49;48.530;9.200;2023-03-01T01:00:15;45.80;;;25.80;;
417;SDS011;49;48.530;9.200;2023-03-01T01:02:45;42.90;;;26.23;;
417;SDS011;49;48.530;9.200;2023-03-01T01:05:12;42.80;;;26.30;;
417;SDS011;49;48.530;9.200;2023-03-01T01:07:46;40.37;;;26.20;;
417;SDS011;49;48.530;9.200;2023-03-01T01:10:13;45.30;;;25.83;;
417;SDS011;49;48.530;9.200;2023-03-01T01:12:42;46.17;;;27.60;;
417;SDS011;49;48.530;9.200;2023-03-01T01:15:09;39.83;;;25.60;;
417;SDS011;49;48.530;9.200;2023-03-01T01:17:39;43.73;;;26.57;;
417;SDS011;49;48.530;9.200;2023-03-01T01:20:08;42.33;;;26.63;;
417;SDS011;49;48.530;9.200;2023-03-01T01:22:36;43.97;;;25.77;;
417;SDS011;49;48.530;9.200;2023-03-01T01:25:03;38.73;;;25.40;;
417;SDS011;49;48.530;9.200;2023-03-01T01:27:31;43.90;;;25.93;;
417;SDS011;49;48.530;9.200;2023-03-01T01:29:57;40.60;;;26.70;;
417;SDS011;49;48.530;9.200;2023-03-01T01:32:24;45.70;;;26.80;;
417;SDS011;49;48.530;9.200;2023-03-01T01:34:51;41.23;;;26.00;;
417;SDS011;49;48.530;9.200;2023-03-01T01:37:20;39.22;;;25.73;;
417;SDS011;49;48.530;9.200;2023-03-01T01:39:47;47.07;;;25.50;;
417;SDS011;49;48.530;9.200;2023-03-01T01:42:14;39.13;;;24.70;;
417;SDS011;49;48.530;9.200;2023-03-01T01:44:42;42.90;;;26.20;;
417;SDS011;49;48.530;9.200;2023-03-01T01:47:14;38.03;;;24.33;;
417;SDS011;49;48.530;9.200;2023-03-01T01:49:44;59.13;;;34.83;;
417;SDS011;49;48.530;9.200;2023-03-01T01:52:16;40.07;;;24.30;;
417;SDS011;49;48.530;9.200;2023-03-01T01:54:48;48.93;;;26.50;;
417;SDS011;49;48.530;9.200;2023-03-01T01:57:18;39.03;;;24.97;;
417;SDS011;49;48.530;9.200;2023-03-01T01:59:52;39.87;;;25.47;;
417;SDS011;49;48.530;9.200;2023-03-01T02:02:21;40.20;;;25.87;;
417;SDS011;49;48.530;9.200;2023-03-01T02:04:48;39.60;;;25.00;;
417;SDS011;49;48.530;9.200;2023-03-01T02:07:20;40.97;;;26.20;;
417;SDS011;49;48.530;9.200;2023-03-01T02:09:51;40.20;;;24.30;;
417;SDS011;49;48.530;9.200;2023-03-01T02:12:20;42.60;;;26.53;;
417;SDS011;49;48.530;9.200;2023-03-01T02:14:50;37.13;;;23.77;;
417;SDS011;49;48.530;9.200;2023-03-01T02:17:17;42.10;;;25.03;;
417;SDS011;49;48.530;9.200;2023-03-01T02:19:50;41.03;;;23.63;;
417;SDS011;49;48.530;9.200;2023-03-01T02:22:27;39.33;;;24.10;;
417;SDS011;49;48.530;9.200;2023-03-01T02:25:00;41.13;;;23.90;;
417;SDS011;49;48.530;9.200;2023-03-01T02:27:38;38.63;;;24.03;;
417;SDS011;49;48.530;9.200;2023-03-01T02:30:15;39.80;;;24.93;;
417;SDS011;49;48.530;9.200;2023-03-01T02:32:42;41.50;;;26.10;;
417;SDS011;49;48.530;9.200;2023-03-01T02:35:09;36.13;;;22.80;;
417;SDS011;49;48.530;9.200;2023-03-01T02:37:39;39.70;;;23.13;;
417;SDS011;49;48.530;9.200;2023-03-01T02:40:11;46.50;;;24.67;;
417;SDS011;49;48.530;9.200;2023-03-01T02:42:45;40.90;;;22.90;;
417;SDS011;49;48.530;9.200;2023-03-01T02:45:16;38.03;;;23.63;;
417;SDS011;49;48.530;9.200;2023-03-01T02:47:43;39.73;;;24.73;;
417;SDS011;49;48.530;9.200;2023-03-01T02:50:15;41.30;;;24.40;;
417;SDS011;49;48.530;9.200;2023-03-01T02:53:04;36.67;;;23.60;;
417;SDS011;49;48.530;9.200;2023-03-01T02:55:37;40.90;;;23.60;;
417;SDS011;49;48.530;9.200;2023-03-01T02:58:04;38.77;;;23.70;;
417;SDS011;49;48.530;9.200;2023-03-01T03:00:34;41.10;;;25.97;;
417;SDS011;49;48.530;9.200;2023-03-01T03:03:05;38.20;;;23.67;;
417;SDS011;49;48.530;9.200;2023-03-01T03:05:33;44.13;;;24.13;;
417;SDS011;49;48.530;9.200;2023-03-01T03:08:02;36.67;;;23.67;;
417;SDS011;49;48.530;9.200;2023-03-01T03:10:30;41.43;;;22.77;;
417;SDS011;49;48.530;9.200;2023-03-01T03:12:59;39.17;;;24.00;;
417;SDS011;49;48.530;9.200;2023-03-01T03:15:27;38.83;;;21.90;;
417;SDS011;49;48.530;9.200;2023-03-01T03:17:56;37.77;;;23.30;;
417;SDS011;49;48.530;9.200;2023-03-01T03:20:26;40.63;;;24.60;;
417;SDS011;49;48.530;9.200;2023-03-01T03:22:55;36.43;;;23.30;;
417;SDS011;49;48.530;9.200;2023-03-01T03:25:24;39.93;;;23.23;;
417;SDS011;49;48.530;9.200;2023-03-01T03:27:53;41.43;;;24.00;;
417;SDS011;49;48.530;9.200;2023-03-01T03:30:22;43.07;;;26.07;;
417;SDS011;49;48.530;9.200;2023-03-01T03:32:52;39.73;;;23.50;;
417;SDS011;49;48.530;9.200;2023-03-01T03:35:24;50.30;;;25.13;;
417;SDS011;49;48.530;9.200;2023-03-01T03:37:55;33.77;;;23.20;;
417;SDS011;49;48.530;9.200;2023-03-01T03:40:50;38.37;;;25.17;;
417;SDS011;49;48.530;9.200;2023-03-01T03:43:42;37.70;;;24.40;;
417;SDS011;49;48.530;9.200;2023-03-01T03:46:10;38.27;;;23.83;;
417;SDS011;49;48.530;9.200;2023-03-01T03:48:38;37.07;;;25.53;;
417;SDS011;49;48.530;9.200;2023-03-01T03:51:09;39.93;;;23.90;;
417;SDS011;49;48.530;9.200;2023-03-01T03:53:37;34.83;;;23.30;;
417;SDS011;49;48.530;9.200;2023-03-01T03:56:07;38.37;;;23.70;;
417;SDS011;49;48.530;9.200;2023-03-01T03:58:34;37.53;;;22.57;;
417;SDS011;49;48.530;9.200;2023-03-01T04:01:02;35.00;;;22.50;;
417;SDS011;49;48.530;9.200;2023-03-01T04:03:37;36.37;;;22.77;;
417;SDS011;49;48.530;9.200;2023-03-01T04:06:04;38.97;;;21.90;;
417;SDS011;49;48.530;9.200;2023-03-01T04:08:37;37.30;;;23.20;;
417;SDS011;49;48.530;9.200;2023-03-01T04:11:04;40.10;;;24.63;;
417;SDS011;49;48.530;9.200;2023-03-01T04:13:46;41.27;;;23.33;;
417;SDS011;49;48.530;9.200;2023-03-01T04:16:13;37.37;;;23.10;;
417;SDS011;49;48.530;9.200;2023-03-01T04:18:40;46.77;;;27.60;;
417;SDS011;49;48.530;9.200;2023-03-01T04:21:07;39.83;;;23.67;;
417;SDS011;49;48.530;9.200;2023-03-01T04:23:34;41.20;;;23.17;;
417;SDS011;49;48.530;9.200;2023-03-01T04:26:08;39.47;;;23.00;;
417;SDS011;49;48.530;9.200;2023-03-01T04:28:39;44.00;;;25.23;;
417;SDS011;49;48.530;9.200;2023-03-01T04:31:10;46.50;;;25.40;;
417;SDS011;49;48.530;9.200;2023-03-01T04:33:39;46.07;;;26.17;;
417;SDS011;49;48.530;9.200;2023-03-01T04:36:07;45.33;;;26.20;;
417;SDS011;49;48.530;9.200;2023-03-01T04:38:35;49.70;;;24.53;;
417;SDS011;49;48.530;9.200;2023-03-01T04:41:03;41.20;;;24.77;;
417;SDS011;49;48.530;9.200;2023-03-01T04:43:35;36.50;;;23.60;;
417;SDS011;49;48.530;9.200;2023-03-01T04:46:03;42.67;;;25.20;;
417;SDS011;49;48.530;9.200;2023-03-01T04:48:33;39.73;;;25.23;;
417;SDS011;49;48.530;9.200;2023-03-01T04:51:00;40.87;;;23.47;;
417;SDS011;49;48.530;9.200;2023-03-01T04:53:27;42.33;;;25.50;;
417;SDS011;49;48.530;9.200;2023-03-01T04:55:55;38.97;;;21.63;;
417;SDS011;49;48.530;9.200;2023-03-01T04:58:24;44.20;;;24.23;;
417;SDS011;49;48.530;9.200;2023-03-01T05:00:53;41.60;;;22.90;;
417;SDS011;49;48.530;9.200;2023-03-01T05:03:21;50.07;;;26.27;;
417;SDS011;49;48.530;9.200;2023-03-01T05:05:50;38.20;;;24.43;;
417;SDS011;49;48.530;9.200;2023-03-01T05:08:17;37.73;;;23.43;;
417;SDS011;49;48.530;9.200;2023-03-01T05:10:46;39.83;;;23.70;;
417;SDS011;49;48.530;9.200;2023-03-01T05:13:15;44.00;;;24.53;;
417;SDS011;49;48.530;9.200;2023-03-01T05:15:47;34.13;;;22.17;;
417;SDS011;49;48.530;9.200;2023-03-01T05:18:19;37.33;;;23.13;;
417;SDS011;49;48.530;9.200;2023-03-01T05:20:46;48.17;;;26.20;;
417;SDS011;49;48.530;9.200;2023-03-01T05:23:13;42.07;;;24.27;;
417;SDS011;49;48.530;9.200;2023-03-01T05:25:40;48.00;;;26.30;;
417;SDS011;49;48.530;9.200;2023-03-01T05:28:08;55.10;;;25.67;;
417;SDS011;49;48.530;9.200;2023-03-01T05:30:38;40.63;;;24.97;;
417;SDS011;49;48.530;9.200;2023-03-01T05:33:06;44.83;;;25.40;;
417;SDS011;49;48.530;9.200;2023-03-01T05:35:38;35.53;;;22.60;;
417;SDS011;49;48.530;9.200;2023-03-01T05:38:06;48.53;;;25.40;;
417;SDS011;49;48.530;9.200;2023-03-01T05:40:33;44.37;;;25.00;;
417;SDS011;49;48.530;9.200;2023-03-01T05:43:00;44.93;;;26.23;;
417;SDS011;49;48.530;9.200;2023-03-01T05:45:30;42.30;;;24.80;;
417;SDS011;49;48.530;9.200;2023-03-01T05:47:58;47.77;;;24.90;;
417;SDS011;49;48.530;9.200;2023-03-01T05:50:27;45.50;;;25.90;;
417;SDS011;49;48.530;9.200;2023-03-01T05:52:59;45.73;;;27.50;;
417;SDS011;49;48.530;9.200;2023-03-01T05:55:28;39.13;;;25.07;;
417;SDS011;49;48.530;9.200;2023-03-01T05:57:57;44.90;;;23.93;;
417;SDS011;49;48.530;9.200;2023-03-01T06:00:25;39.83;;;24.20;;
417;SDS011;49;48.530;9.200;2023-03-01T06:02:53;40.87;;;23.70;;
417;SDS011;49;48.530;9.200;2023-03-01T06:05:20;45.27;;;25.93;;
417;SDS011;49;48.530;9.200;2023-03-01T06:07:49;38.77;;;23.20;;
417;SDS011;49;48.530;9.200;2023-03-01T06:10:17;40.87;;;23.53;;
417;SDS011;49;48.530;9.200;2023-03-01T06:12:45;39.23;;;25.00;;
417;SDS011;49;48.530;9.200;2023-03-01T06:15:12;39.73;;;24.77;;
417;SDS011;49;48.530;9.200;2023-03-01T06:17:42;43.03;;;24.20;;
417;SDS011;49;48.530;9.200;2023-03-01T06:20:12;50.93;;;25.13;;
417;SDS011;49;48.530;9.200;2023-03-01T06:22:41;44.03;;;23.53;;
417;SDS011;49;48.530;9.200;2023-03-01T06:25:10;52.47;;;28.60;;
417;SDS011;49;48.530;9.200;2023-03-01T06:27:38;42.40;;;24.03;;
417;SDS011;49;48.530;9.200;2023-03-01T06:30:06;41.87;;;23.80;;
417;SDS011;49;48.530;9.200;2023-03-01T06:32:34;42.83;;;23.40;;
417;SDS011;49;48.530;9.200;2023-03-01T06:35:02;44.07;;;25.80;;
417;SDS011;49;48.530;9.200;2023-03-01T06:37:29;45.10;;;24.90;;
417;SDS011;49;48.530;9.200;2023-03-01T06:39:57;47.30;;;25.07;;
417;SDS011;49;48.530;9.200;2023-03-01T06:42:25;39.13;;;23.57;;
417;SDS011;49;48.530;9.200;2023-03-01T06:44:54;54.70;;;28.70;;
417;SDS011;49;48.530;9.200;2023-03-01T06:47:22;53.77;;;30.00;;
417;SDS011;49;48.530;9.200;2023-03-01T06:49:49;73.97;;;39.63;;
417;SDS011;49;48.530;9.200;2023-03-01T06:52:18;50.00;;;29.10;;
417;SDS011;49;48.530;9.200;2023-03-01T06:54:45;55.57;;;30.63;;
417;SDS011;49;48.530;9.200;2023-03-01T06:57:12;44.47;;;28.10;;
417;SDS011;49;48.530;9.200;2023-03-01T06:59:41;46.50;;;26.63;;
417;SDS011;49;48.530;9.200;2023-03-01T07:02:09;39.43;;;23.77;;
417;SDS011;49;48.530;9.200;2023-03-01T07:04:40;48.40;;;27.53;;
417;SDS011;49;48.530;9.200;2023-03-01T07:07:07;49.10;;;26.07;;
417;SDS011;49;48.530;9.200;2023-03-01T07:09:34;47.60;;;26.80;;
417;SDS011;49;48.530;9.200;2023-03-01T07:12:02;49.00;;;28.87;;
417;SDS011;49;48.530;9.200;2023-03-01T07:14:29;45.83;;;25.87;;
417;SDS011;49;48.530;9.200;2023-03-01T07:16:58;47.23;;;26.67;;
417;SDS011;49;48.530;9.200;2023-03-01T07:19:25;44.17;;;26.43;;
417;SDS011;49;48.530;9.200;2023-03-01T07:21:52;51.87;;;27.10;;
417;SDS011;49;48.530;9.200;2023-03-01T07:24:20;47.47;;;27.57;;
417;SDS011;49;48.530;9.200;2023-03-01T07:26:48;44.37;;;25.70;;
417;SDS011;49;48.530;9.200;2023-03-01T07:29:18;39.40;;;24.03;;
417;SDS011;49;48.530;9.200;2023-03-01T07:31:46;40.00;;;24.37;;
417;SDS011;49;48.530;9.200;2023-03-01T07:34:14;37.83;;;23.40;;
417;SDS011;49;48.530;9.200;2023-03-01T07:36:42;43.13;;;23.03;;
417;SDS011;49;48.530;9.200;2023-03-01T07:39:10;44.57;;;24.47;;
417;SDS011;49;48.530;9.200;2023-03-01T07:41:37;41.17;;;24.40;;
417;SDS011;49;48.530;9.200;2023-03-01T07:44:05;45.00;;;24.37;;
417;SDS011;49;48.530;9.200;2023-03-01T07:46:32;44.13;;;24.47;;
417;SDS011;49;48.530;9.200;2023-03-01T07:48:59;40.47;;;24.40;;
417;SDS011;49;48.530;9.200;2023-03-01T07:51:34;39.67;;;23.90;;
417;SDS011;49;48.530;9.200;2023-03-01T07:54:01;41.53;;;23.93;;
417;SDS011;49;48.530;9.200;2023-03-01T07:56:30;46.00;;;24.77;;
417;SDS011;49;48.530;9.200;2023-03-01T07:58:58;40.33;;;25.00;;
417;SDS011;49;48.530;9.200;2023-03-01T08:01:26;38.53;;;24.23;;
417;SDS011;49;48.530;9.200;2023-03-01T08:03:55;51.33;;;27.90;;
417;SDS011;49;48.530;9.200;2023-03-01T08:06:26;41.23;;;24.40;;
417;SDS011;49;48.530;9.200;2023-03-01T08:08:55;43.23;;;23.30;;
417;SDS011;49;48.530;9.200;2023-03-01T08:11:26;45.10;;;25.67;;
417;SDS011;49;48.530;9.200;2023-03-01T08:13:55;48.13;;;26.53;;
417;SDS011;49;48.530;9.200;2023-03-01T08:16:22;45.83;;;24.43;;
417;SDS011;49;48.530;9.200;2023-03-01T08:18:49;49.50;;;24.83;;
417;SDS011;49;48.530;9.200;2023-03-01T08:21:17;44.97;;;23.83;;
417;SDS011;49;48.530;9.200;2023-03-01T08:23:46;38.83;;;24.70;;
417;SDS011;49;48.530;9.200;2023-03-01T08:26:20;36.53;;;22.33;;
417;SDS011;49;48.530;9.200;2023-03-01T08:28:53;36.97;;;23.57;;
417;SDS011;49;48.530;9.200;2023-03-01T08:36:26;36.70;;;24.23;;
417;SDS011;49;48.530;9.200;2023-03-01T08:38:55;43.13;;;25.50;;
417;SDS011;49;48.530;9.200;2023-03-01T08:41:24;41.20;;;25.63;;
417;SDS011;49;48.530;9.200;2023-03-01T08:43:54;40.47;;;24.73;;
417;SDS011;49;48.530;9.200;2023-03-01T08:46:24;36.90;;;23.40;;
417;SDS011;49;48.530;9.200;2023-03-01T08:48:51;43.17;;;25.40;;
417;SDS011;49;48.530;9.200;2023-03-01T08:51:22;43.60;;;25.10;;
417;SDS011;49;48.530;9.200;2023-03-01T08:53:50;48.03;;;25.70;;
417;SDS011;49;48.530;9.200;2023-03-01T08:56:17;39.50;;;24.27;;
417;SDS011;49;48.530;9.200;2023-03-01T08:58:46;39.63;;;24.13;;
417;SDS011;49;48.530;9.200;2023-03-01T09:01:15;44.57;;;24.90;;
417;SDS011;49;48.530;9.200;2023-03-01T09:03:44;44.43;;;25.17;;
417;SDS011;49;48.530;9.200;2023-03-01T09:06:11;48.90;;;28.50;;
417;SDS011;49;48.530;9.200;2023-03-01T09:08:42;44.50;;;25.20;;
417;SDS011;49;48.530;9.200;2023-03-01T09:11:11;78.03;;;38.57;;
417;SDS011;49;48.530;9.200;2023-03-01T09:13:41;47.30;;;26.00;;
417;SDS011;49;48.530;9.200;2023-03-01T09:16:16;59.47;;;31.93;;
417;SDS011;49;48.530;9.200;2023-03-01T09:18:54;44.30;;;26.73;;
417;SDS011;49;48.530;9.200;2023-03-01T09:21:22;45.47;;;25.50;;
417;SDS011;49;48.530;9.200;2023-03-01T09:23:49;51.60;;;25.27;;
417;SDS011;49;48.530;9.200;2023-03-01T09:26:21;37.80;;;23.33;;
417;SDS011;49;48.530;9.200;2023-03-01T09:28:49;39.77;;;23.40;;
417;SDS011;49;48.530;9.200;2023-03-01T09:31:20;37.40;;;23.50;;
417;SDS011;49;48.530;9.200;2023-03-01T09:33:53;41.77;;;25.27;;
417;SDS011;49;48.530;9.200;2023-03-01T09:36:21;43.03;;;25.50;;
417;SDS011;49;48.530;9.200;2023-03-01T09:38:51;41.00;;;25.00;;
417;SDS011;49;48.530;9.200;2023-03-01T09:41:31;42.00;;;25.93;;
417;SDS011;49;48.530;9.200;2023-03-01T09:44:18;42.00;;;22.27;;
417;SDS011;49;48.530;9.200;2023-03-01T09:47:04;41.10;;;23.67;;
417;SDS011;49;48.530;9.200;2023-03-01T09:49:36;40.70;;;23.40;;
417;SDS011;49;48.530;9.200;2023-03-01T09:52:17;42.53;;;25.30;;
417;SDS011;49;48.530;9.200;2023-03-01T09:54:52;35.93;;;23.00;;
417;SDS011;49;48.530;9.200;2023-03-01T10:00:11;42.67;;;25.20;;
417;SDS011;49;48.530;9.200;2023-03-01T10:02:47;42.83;;;24.00;;
417;SDS011;49;48.530;9.200;2023-03-01T10:08:23;40.50;;;24.87;;
417;SDS011;49;48.530;9.200;2023-03-01T10:10:57;40.53;;;23.90;;
417;SDS011;49;48.530;9.200;2023-03-01T10:13:26;38.70;;;24.10;;
417;SDS011;49;48.530;9.200;2023-03-01T10:16:10;38.00;;;23.30;;
417;SDS011;49;48.530;9.200;2023-03-01T10:18:43;50.60;;;23.87;;
417;SDS011;49;48.530;9.200;2023-03-01T10:21:14;37.23;;;23.43;;
417;SDS011;49;48.530;9.200;2023-03-01T10:23:43;39.53;;;23.80;;
417;SDS011;49;48.530;9.200;2023-03-01T10:26:20;40.10;;;23.57;;
417;SDS011;49;48.530;9.200;2023-03-01T10:28:59;44.27;;;24.00;;
417;SDS011;49;48.530;9.200;2023-03-01T10:31:32;40.47;;;25.20;;
417;SDS011;49;48.530;9.200;2023-03-01T10:34:13;41.17;;;24.60;;
417;SDS011;49;48.530;9.200;2023-03-01T10:36:43;39.33;;;23.53;;
417;SDS011;49;48.530;9.200;2023-03-01T10:39:14;37.60;;;23.90;;
417;SDS011;49;48.530;9.200;2023-03-01T10:41:58;43.77;;;24.47;;
417;SDS011;49;48.530;9.200;2023-03-01T10:44:42;42.20;;;23.73;;
417;SDS011;49;48.530;9.200;2023-03-01T10:47:17;39.67;;;23.87;;
417;SDS011;49;48.530;9.200;2023-03-01T10:49:58;39.00;;;22.60;;
417;SDS011;49;48.530;9.200;2023-03-01T10:52:28;68.83;;;24.53;;
417;SDS011;49;48.530;9.200;2023-03-01T10:54:59;36.33;;;22.47;;
417;SDS011;49;48.530;9.200;2023-03-01T10:57:30;34.40;;;22.20;;
417;SDS011;49;48.530;9.200;2023-03-01T11:02:49;33.80;;;20.67;;
417;SDS011;49;48.530;9.200;2023-03-01T11:05:21;39.93;;;21.33;;
417;SDS011;49;48.530;9.200;2023-03-01T11:07:50;37.30;;;21.87;;
417;SDS011;49;48.530;9.200;2023-03-01T11:10:23;36.93;;;21.47;;
417;SDS011;49;48.530;9.200;2023-03-01T11:12:51;31.30;;;20.43;;
417;SDS011;49;48.530;9.200;2023-03-01T11:15:21;32.53;;;21.10;;
417;SDS011;49;48.530;9.200;2023-03-01T11:17:54;40.77;;;20.93;;
417;SDS011;49;48.530;9.200;2023-03-01T11:20:29;37.93;;;22.83;;
417;SDS011;49;48.530;9.200;2023-03-01T11:22:58;30.90;;;21.10;;
417;SDS011;49;48.530;9.200;2023-03-01T11:25:33;33.23;;;20.37;;
417;SDS011;49;48.530;9.200;2023-03-01T11:28:11;36.13;;;21.03;;
417;SDS011;49;48.530;9.200;2023-03-01T11:30:49;30.93;;;19.53;;
417;SDS011;49;48.530;9.200;2023-03-01T11:33:24;33.00;;;19.80;;
417;SDS011;49;48.530;9.200;2023-03-01T11:36:04;33.13;;;20.00;;
417;SDS011;49;48.530;9.200;2023-03-01T11:38:34;33.57;;;19.73;;
417;SDS011;49;48.530;9.200;2023-03-01T11:41:04;37.00;;;19.60;;
417;SDS011;49;48.530;9.200;2023-03-01T11:43:36;30.90;;;20.13;;
417;SDS011;49;48.530;9.200;2023-03-01T11:46:23;31.07;;;18.97;;
417;SDS011;49;48.530;9.200;2023-03-01T11:52:08;35.23;;;20.03;;
417;SDS011;49;48.530;9.200;2023-03-01T11:54:49;28.20;;;19.40;;
417;SDS011;49;48.530;9.200;2023-03-01T11:57:33;28.17;;;18.50;;
417;SDS011;49;48.530;9.200;2023-03-01T12:00:25;33.10;;;18.67;;
417;SDS011;49;48.530;9.200;2023-03-01T12:03:26;27.43;;;17.50;;
417;SDS011;49;48.530;9.200;2023-03-01T12:06:03;30.20;;;17.60;;
417;SDS011;49;48.530;9.200;2023-03-01T12:08:51;29.73;;;17.97;;
417;SDS011;49;48.530;9.200;2023-03-01T12:11:32;42.67;;;20.10;;
417;SDS011;49;48.530;9.200;2023-03-01T12:17:11;31.77;;;18.20;;
417;SDS011;49;48.530;9.200;2023-03-01T12:20:03;26.43;;;16.77;;
417;SDS011;49;48.530;9.200;2023-03-01T12:22:46;26.50;;;17.60;;
417;SDS011;49;48.530;9.200;2023-03-01T12:31:11;26.60;;;17.50;;
417;SDS011;49;48.530;9.200;2023-03-01T12:34:01;30.00;;;18.30;;
417;SDS011;49;48.530;9.200;2023-03-01T12:36:50;33.00;;;18.47;;
417;SDS011;49;48.530;9.200;2023-03-01T12:39:35;29.73;;;19.20;;
417;SDS011;49;48.530;9.200;2023-03-01T12:42:19;37.33;;;20.00;;
417;SDS011;49;48.530;9.200;2023-03-01T12:44:55;33.93;;;20.90;;
417;SDS011;49;48.530;9.200;2023-03-01T12:47:36;33.50;;;18.47;;
417;SDS011;49;48.530;9.200;2023-03-01T12:50:24;35.87;;;18.60;;
417;SDS011;49;48.530;9.200;2023-03-01T12:52:56;30.10;;;18.13;;
417;SDS011;49;48.530;9.200;2023-03-01T12:55:26;29.90;;;18.90;;
417;SDS011;49;48.530;9.200;2023-03-01T12:58:02;29.83;;;17.60;;
417;SDS011;49;48.530;9.200;2023-03-01T13:00:38;25.40;;;16.77;;
417;SDS011;49;48.530;9.200;2023-03-01T13:03:16;34.23;;;18.90;;
417;SDS011;49;48.530;9.200;2023-03-01T13:05:52;29.63;;;18.77;;
417;SDS011;49;48.530;9.200;2023-03-01T13:08:29;33.97;;;18.40;;
417;SDS011;49;48.530;9.200;2023-03-01T13:11:00;26.93;;;16.53;;
417;SDS011;49;48.530;9.200;2023-03-01T13:13:31;25.40;;;16.87;;
417;SDS011;49;48.530;9.200;2023-03-01T13:16:11;26.80;;;17.20;;
417;SDS011;49;48.530;9.200;2023-03-01T13:19:14;34.27;;;19.60;;
417;SDS011;49;48.530;9.200;2023-03-01T13:21:43;29.17;;;18.20;;
417;SDS011;49;48.530;9.200;2023-03-01T13:29:59;38.60;;;22.27;;
417;SDS011;49;48.530;9.200;2023-03-01T13:32:31;32.07;;;20.17;;
417;SDS011;49;48.530;9.200;2023-03-01T13:34:59;34.97;;;18.73;;
417;SDS011;49;48.530;9.200;2023-03-01T13:37:28;31.10;;;19.77;;
417;SDS011;49;48.530;9.200;2023-03-01T13:40:08;38.03;;;20.10;;
417;SDS011;49;48.530;9.200;2023-03-01T13:43:32;30.67;;;20.13;;
417;SDS011;49;48.530;9.200;2023-03-01T13:46:09;32.90;;;20.00;;
417;SDS011;49;48.530;9.200;2023-03-01T13:48:38;33.30;;;19.07;;
417;SDS011;49;48.530;9.200;2023-03-01T13:51:07;27.90;;;17.73;;
417;SDS011;49;48.530;9.200;2023-03-01T13:53:41;35.70;;;19.03;;
417;SDS011;49;48.530;9.200;2023-03-01T13:56:12;38.23;;;19.80;;
417;SDS011;49;48.530;9.200;2023-03-01T13:58:46;28.23;;;18.07;;
417;SDS011;49;48.530;9.200;2023-03-01T14:01:24;28.60;;;18.33;;
417;SDS011;49;48.530;9.200;2023-03-01T14:03:54;30.17;;;18.57;;
417;SDS011;49;48.530;9.200;2023-03-01T14:06:25;30.40;;;19.83;;
417;SDS011;49;48.530;9.200;2023-03-01T14:09:00;40.20;;;20.90;;
417;SDS011;49;48.530;9.200;2023-03-01T14:11:37;36.70;;;19.50;;
417;SDS011;49;48.530;9.200;2023-03-01T14:14:44;34.57;;;18.80;;
417;SDS011;49;48.530;9.200;2023-03-01T14:20:09;31.53;;;19.57;;
417;SDS011;49;48.530;9.200;2023-03-01T14:22:52;37.03;;;20.10;;
417;SDS011;49;48.530;9.200;2023-03-01T14:25:23;30.83;;;18.83;;
417;SDS011;49;48.530;9.200;2023-03-01T14:27:54;27.80;;;18.83;;
417;SDS011;49;48.530;9.200;2023-03-01T14:30:27;33.93;;;18.63;;
417;SDS011;49;48.530;9.200;2023-03-01T14:33:01;31.03;;;19.20;;
417;SDS011;49;48.530;9.200;2023-03-01T14:35:31;30.40;;;18.67;;
417;SDS011;49;48.530;9.200;2023-03-01T14:38:00;29.83;;;18.60;;
417;SDS011;49;48.530;9.200;2023-03-01T14:40:35;40.67;;;17.80;;
417;SDS011;49;48.530;9.200;2023-03-01T14:43:10;32.73;;;18.53;;
417;SDS011;49;48.530;9.200;2023-03-01T14:45:42;31.07;;;17.50;;
417;SDS011;49;48.530;9.200;2023-03-01T14:48:16;32.40;;;18.90;;
417;SDS011;49;48.530;9.200;2023-03-01T14:50:44;26.13;;;17.17;;
417;SDS011;49;48.530;9.200;2023-03-01T14:53:15;30.60;;;19.00;;
417;SDS011;49;48.530;9.200;2023-03-01T14:55:45;30.20;;;18.30;;
417;SDS011;49;48.530;9.200;2023-03-01T14:58:18;28.67;;;16.63;;
417;SDS011;49;48.530;9.200;2023-03-01T15:00:54;32.53;;;16.33;;
417;SDS011;49;48.530;9.200;2023-03-01T15:03:36;31.93;;;17.90;;
417;SDS011;49;48.530;9.200;2023-03-01T15:06:07;36.00;;;17.90;;
417;SDS011;49;48.530;9.200;2023-03-01T15:08:38;33.87;;;18.93;;
417;SDS011;49;48.530;9.200;2023-03-01T15:11:17;32.40;;;19.80;;
417;SDS011;49;48.530;9.200;2023-03-01T15:13:47;34.07;;;18.13;;
417;SDS011;49;48.530;9.200;2023-03-01T15:16:15;29.37;;;17.93;;
417;SDS011;49;48.530;9.200;2023-03-01T15:18:46;28.33;;;18.20;;
417;SDS011;49;48.530;9.200;2023-03-01T15:21:16;31.10;;;18.70;;
417;SDS011;49;48.530;9.200;2023-03-01T15:23:48;34.17;;;20.77;;
417;SDS011;49;48.530;9.200;2023-03-01T15:26:28;32.27;;;19.30;;
417;SDS011;49;48.530;9.200;2023-03-01T15:28:58;38.20;;;20.33;;
417;SDS011;49;48.530;9.200;2023-03-01T15:31:34;38.40;;;20.63;;
417;SDS011;49;48.530;9.200;2023-03-01T15:34:24;36.80;;;19.43;;
417;SDS011;49;48.530;9.200;2023-03-01T15:36:57;43.73;;;22.63;;
417;SDS011;49;48.530;9.200;2023-03-01T15:39:32;40.43;;;23.23;;
417;SDS011;49;48.530;9.200;2023-03-01T15:42:09;44.43;;;24.53;;
417;SDS011;49;48.530;9.200;2023-03-01T15:44:41;38.23;;;21.47;;
417;SDS011;49;48.530;9.200;2023-03-01T15:47:22;49.83;;;26.00;;
417;SDS011;49;48.530;9.200;2023-03-01T15:49:57;38.33;;;22.23;;
417;SDS011;49;48.530;9.200;2023-03-01T15:52:26;47.73;;;21.90;;
417;SDS011;49;48.530;9.200;2023-03-01T15:54:56;35.53;;;19.97;;
417;SDS011;49;48.530;9.200;2023-03-01T15:57:25;41.77;;;22.83;;
417;SDS011;49;48.530;9.200;2023-03-01T15:59:55;61.27;;;28.80;;
417;SDS011;49;48.530;9.200;2023-03-01T16:02:25;49.03;;;26.10;;
417;SDS011;49;48.530;9.200;2023-03-01T16:04:58;54.13;;;25.30;;
417;SDS011;49;48.530;9.200;2023-03-01T16:07:39;49.70;;;23.43;;
417;SDS011;49;48.530;9.200;2023-03-01T16:10:06;33.23;;;20.60;;
417;SDS011;49;48.530;9.200;2023-03-01T16:12:34;37.63;;;20.50;;
417;SDS011;49;48.530;9.200;2023-03-01T16:15:01;39.30;;;22.53;;
417;SDS011;49;48.530;9.200;2023-03-01T16:17:39;32.83;;;18.67;;
417;SDS011;49;48.530;9.200;2023-03-01T16:20:08;34.77;;;20.30;;
417;SDS011;49;48.530;9.200;2023-03-01T16:22:40;31.80;;;18.67;;
417;SDS011;49;48.530;9.200;2023-03-01T16:25:08;30.87;;;19.03;;
417;SDS011;49;48.530;9.200;2023-03-01T16:27:36;40.47;;;18.00;;
417;SDS011;49;48.530;9.200;2023-03-01T16:30:04;52.23;;;25.87;;
417;SDS011;49;48.530;9.200;2023-03-01T16:32:32;55.10;;;29.50;;
417;SDS011;49;48.530;9.200;2023-03-01T16:34:59;46.10;;;25.33;;